sensor_id;sensor_type;location;lat;lon;timestamp;P1;durP1;ratioP1;P2;durP2;ratioP2
52268;SDS011;38224;50.950;4.100;2023-08-31T00:02:00;6.30;;;4.18;;
52268;SDS011;38224;50.950;4.100;2023-08-31T00:04:25;4.65;;;3.45;;
52268;SDS011;38224;50.950;4.100;2023-08-31T00:06:51;8.00;;;4.43;;
52268;SDS011;38224;50.950;4.100;2023-08-31T00:09:16;5.07;;;3.40;;
52268;SDS011;38224;50.950;4.100;2023-08-31T00:11:41;4.93;;;3.33;;
52268;SDS011;38224;50.950;4.100;2023-08-31T00:14:06;7.17;;;3.73;;
52268;SDS011;38224;50.950;4.100;2023-08-31T00:16:32;5.70;;;3.73;;
52268;SDS011;38224;50.950;4.100;2023-08-31T00:18:58;13.23;;;4.78;;
52268;SDS011;38224;50.950;4.100;2023-08-31T00:21:24;6.25;;;3.97;;
52268;SDS011;38224;50.950;4.100;2023-08-31T00:23:49;7.97;;;3.95;;
52268;SDS011;38224;50.950;4.100;2023-08-31T00:26:14;5.72;;;3.97;;
52268;SDS011;38224;50.950;4.100;2023-08-31T00:28:40;7.17;;;4.43;;
52268;SDS011;38224;50.950;4.100;2023-08-31T00:31:07;8.77;;;4.35;;
52268;SDS011;38224;50.950;4.100;2023-08-31T00:33:33;6.18;;;3.88;;
52268;SDS011;38224;50.950;4.100;2023-08-31T00:36:01;10.13;;;3.97;;
52268;SDS011;38224;50.950;4.100;2023-08-31T00:38:28;7.10;;;4.18;;
52268;SDS011;38224;50.950;4.100;2023-08-31T00:40:54;12.15;;;4.25;;
52268;SDS011;38224;50.950;4.100;2023-08-31T00:43:19;8.23;;;4.72;;
52268;SDS011;38224;50.950;4.100;2023-08-31T00:45:45;7.90;;;4.32;;
52268;SDS011;38224;50.950;4.100;2023-08-31T00:48:14;7.35;;;4.50;;
52268;SDS011;38224;50.950;4.100;2023-08-31T00:50:40;8.48;;;5.40;;
52268;SDS011;38224;50.950;4.100;2023-08-31T00:53:05;11.63;;;4.90;;
52268;SDS011;38224;50.950;4.100;2023-08-31T00:55:31;11.45;;;4.47;;
52268;SDS011;38224;50.950;4.100;2023-08-31T00:57:58;9.85;;;4.60;;
52268;SDS011;38224;50.950;4.100;2023-08-31T01:00:24;6.88;;;4.75;;
52268;SDS011;38224;50.950;4.100;2023-08-31T01:03:01;8.75;;;5.00;;
52268;SDS011;38224;50.950;4.100;2023-08-31T01:07:58;6.57;;;5.32;;
52268;SDS011;38224;50.950;4.100;2023-08-31T01:13:13;8.90;;;5.78;;
52268;SDS011;38224;50.950;4.100;2023-08-31T01:15:41;9.55;;;4.85;;
52268;SDS011;38224;50.950;4.100;2023-08-31T01:18:09;9.10;;;4.88;;
52268;SDS011;38224;50.950;4.100;2023-08-31T01:23:19;8.95;;;5.47;;
52268;SDS011;38224;50.950;4.100;2023-08-31T01:25:45;9.35;;;5.93;;
52268;SDS011;38224;50.950;4.100;2023-08-31T01:28:11;9.13;;;5.18;;
52268;SDS011;38224;50.950;4.100;2023-08-31T01:30:36;10.32;;;6.85;;
52268;SDS011;38224;50.950;4.100;2023-08-31T01:33:02;9.93;;;5.50;;
52268;SDS011;38224;50.950;4.100;2023-08-31T01:35:29;11.50;;;6.05;;
52268;SDS011;38224;50.950;4.100;2023-08-31T01:37:57;8.85;;;5.78;;
52268;SDS011;38224;50.950;4.100;2023-08-31T01:40:34;11.68;;;6.30;;
52268;SDS011;38224;50.950;4.100;2023-08-31T01:43:01;11.85;;;6.50;;
52268;SDS011;38224;50.950;4.100;2023-08-31T01:45:26;9.07;;;6.28;;
52268;SDS011;38224;50.950;4.100;2023-08-31T01:47:52;10.52;;;6.25;;
52268;SDS011;38224;50.950;4.100;2023-08-31T01:50:17;11.50;;;6.43;;
52268;SDS011;38224;50.950;4.100;2023-08-31T01:52:42;12.73;;;6.20;;
52268;SDS011;38224;50.950;4.100;2023-08-31T01:55:07;12.20;;;6.50;;
52268;SDS011;38224;50.950;4.100;2023-08-31T01:57:33;13.95;;;7.22;;
52268;SDS011;38224;50.950;4.100;2023-08-31T01:59:58;8.38;;;6.60;;
52268;SDS011;38224;50.950;4.100;2023-08-31T02:02:24;10.18;;;6.55;;
52268;SDS011;38224;50.950;4.100;2023-08-31T02:04:52;10.47;;;6.00;;
52268;SDS011;38224;50.950;4.100;2023-08-31T02:07:17;12.45;;;6.80;;
52268;SDS011;38224;50.950;4.100;2023-08-31T02:09:43;13.05;;;6.22;;
52268;SDS011;38224;50.950;4.100;2023-08-31T02:12:08;10.43;;;7.07;;
52268;SDS011;38224;50.950;4.100;2023-08-31T02:14:36;11.35;;;6.60;;
52268;SDS011;38224;50.950;4.100;2023-08-31T02:17:01;12.13;;;6.30;;
52268;SDS011;38224;50.950;4.100;2023-08-31T02:19:27;10.65;;;6.55;;
52268;SDS011;38224;50.950;4.100;2023-08-31T02:21:52;11.60;;;6.32;;
52268;SDS011;38224;50.950;4.100;2023-08-31T02:24:17;20.40;;;7.83;;
52268;SDS011;38224;50.950;4.100;2023-08-31T02:26:42;14.60;;;6.53;;
52268;SDS011;38224;50.950;4.100;2023-08-31T02:29:08;9.93;;;6.43;;
52268;SDS011;38224;50.950;4.100;2023-08-31T02:31:33;16.90;;;6.80;;
52268;SDS011;38224;50.950;4.100;2023-08-31T02:33:58;11.68;;;6.70;;
52268;SDS011;38224;50.950;4.100;2023-08-31T02:36:23;10.23;;;6.40;;
52268;SDS011;38224;50.950;4.100;2023-08-31T02:38:49;14.65;;;6.85;;
52268;SDS011;38224;50.950;4.100;2023-08-31T02:41:15;13.88;;;6.60;;
52268;SDS011;38224;50.950;4.100;2023-08-31T02:43:41;9.98;;;6.25;;
52268;SDS011;38224;50.950;4.100;2023-08-31T02:46:06;12.73;;;6.80;;
52268;SDS011;38224;50.950;4.100;2023-08-31T02:48:32;11.80;;;6.50;;
52268;SDS011;38224;50.950;4.100;2023-08-31T02:50:58;13.27;;;6.10;;
52268;SDS011;38224;50.950;4.100;2023-08-31T02:53:26;6.88;;;6.15;;
52268;SDS011;38224;50.950;4.100;2023-08-31T02:55:51;8.38;;;6.35;;
52268;SDS011;38224;50.950;4.100;2023-08-31T02:58:16;7.72;;;5.82;;
52268;SDS011;38224;50.950;4.100;2023-08-31T03:00:41;10.87;;;6.70;;
52268;SDS011;38224;50.950;4.100;2023-08-31T03:03:10;12.02;;;5.93;;
52268;SDS011;38224;50.950;4.100;2023-08-31T03:05:35;13.57;;;6.93;;
52268;SDS011;38224;50.950;4.100;2023-08-31T03:08:01;12.37;;;6.83;;
52268;SDS011;38224;50.950;4.100;2023-08-31T03:10:26;15.77;;;7.03;;
52268;SDS011;38224;50.950;4.100;2023-08-31T03:12:51;15.30;;;7.43;;
52268;SDS011;38224;50.950;4.100;2023-08-31T03:15:16;15.03;;;8.20;;
52268;SDS011;38224;50.950;4.100;2023-08-31T03:17:42;13.02;;;7.72;;
52268;SDS011;38224;50.950;4.100;2023-08-31T03:20:07;14.88;;;8.63;;
52268;SDS011;38224;50.950;4.100;2023-08-31T03:22:33;14.02;;;9.35;;
52268;SDS011;38224;50.950;4.100;2023-08-31T03:24:58;15.65;;;10.18;;
52268;SDS011;38224;50.950;4.100;2023-08-31T03:27:24;17.70;;;10.23;;
52268;SDS011;38224;50.950;4.100;2023-08-31T03:29:49;16.58;;;10.35;;
52268;SDS011;38224;50.950;4.100;2023-08-31T03:32:15;20.00;;;11.23;;
52268;SDS011;38224;50.950;4.100;2023-08-31T03:34:40;17.98;;;11.60;;
52268;SDS011;38224;50.950;4.100;2023-08-31T03:37:06;19.30;;;10.98;;
52268;SDS011;38224;50.950;4.100;2023-08-31T03:39:31;25.70;;;13.20;;
52268;SDS011;38224;50.950;4.100;2023-08-31T03:41:56;19.20;;;12.17;;
52268;SDS011;38224;50.950;4.100;2023-08-31T03:44:22;20.52;;;12.82;;
52268;SDS011;38224;50.950;4.100;2023-08-31T03:46:47;19.75;;;12.98;;
52268;SDS011;38224;50.950;4.100;2023-08-31T03:49:12;25.20;;;12.33;;
52268;SDS011;38224;50.950;4.100;2023-08-31T03:51:38;21.03;;;13.57;;
52268;SDS011;38224;50.950;4.100;2023-08-31T03:54:03;19.43;;;12.63;;
52268;SDS011;38224;50.950;4.100;2023-08-31T03:56:28;21.00;;;12.60;;
52268;SDS011;38224;50.950;4.100;2023-08-31T03:58:53;24.33;;;13.17;;
52268;SDS011;38224;50.950;4.100;2023-08-31T04:01:19;18.98;;;12.80;;
52268;SDS011;38224;50.950;4.100;2023-08-31T04:03:44;15.57;;;11.80;;
52268;SDS011;38224;50.950;4.100;2023-08-31T04:06:10;20.15;;;12.55;;
52268;SDS011;38224;50.950;4.100;2023-08-31T04:08:35;20.70;;;13.18;;
52268;SDS011;38224;50.950;4.100;2023-08-31T04:11:00;23.07;;;12.80;;
52268;SDS011;38224;50.950;4.100;2023-08-31T04:13:25;17.37;;;12.67;;
52268;SDS011;38224;50.950;4.100;2023-08-31T04:15:51;22.13;;;12.87;;
52268;SDS011;38224;50.950;4.100;2023-08-31T04:18:17;17.63;;;11.65;;
52268;SDS011;38224;50.950;4.100;2023-08-31T04:20:49;17.73;;;12.07;;
52268;SDS011;38224;50.950;4.100;2023-08-31T04:23:15;22.17;;;12.82;;
52268;SDS011;38224;50.950;4.100;2023-08-31T04:25:41;18.50;;;11.82;;
52268;SDS011;38224;50.950;4.100;2023-08-31T04:28:07;17.30;;;11.30;;
52268;SDS011;38224;50.950;4.100;2023-08-31T04:30:32;17.83;;;10.30;;
52268;SDS011;38224;50.950;4.100;2023-08-31T04:32:59;15.98;;;11.15;;
52268;SDS011;38224;50.950;4.100;2023-08-31T04:35:24;18.70;;;10.60;;
52268;SDS011;38224;50.950;4.100;2023-08-31T04:37:49;12.18;;;9.48;;
52268;SDS011;38224;50.950;4.100;2023-08-31T04:40:15;15.32;;;9.55;;
52268;SDS011;38224;50.950;4.100;2023-08-31T04:42:40;10.63;;;8.40;;
52268;SDS011;38224;50.950;4.100;2023-08-31T04:45:05;17.63;;;9.27;;
52268;SDS011;38224;50.950;4.100;2023-08-31T04:47:31;12.95;;;9.43;;
52268;SDS011;38224;50.950;4.100;2023-08-31T04:49:56;18.47;;;9.80;;
52268;SDS011;38224;50.950;4.100;2023-08-31T04:52:24;17.92;;;8.70;;
52268;SDS011;38224;50.950;4.100;2023-08-31T04:54:49;13.93;;;8.53;;
52268;SDS011;38224;50.950;4.100;2023-08-31T04:57:14;16.77;;;9.37;;
52268;SDS011;38224;50.950;4.100;2023-08-31T04:59:39;18.87;;;9.83;;
52268;SDS011;38224;50.950;4.100;2023-08-31T05:02:04;16.97;;;10.07;;
52268;SDS011;38224;50.950;4.100;2023-08-31T05:04:30;20.33;;;9.30;;
52268;SDS011;38224;50.950;4.100;2023-08-31T05:06:55;20.80;;;9.25;;
52268;SDS011;38224;50.950;4.100;2023-08-31T05:09:21;21.45;;;9.25;;
52268;SDS011;38224;50.950;4.100;2023-08-31T05:11:46;18.00;;;9.07;;
52268;SDS011;38224;50.950;4.100;2023-08-31T05:14:11;18.47;;;8.07;;
52268;SDS011;38224;50.950;4.100;2023-08-31T05:16:36;17.33;;;8.57;;
52268;SDS011;38224;50.950;4.100;2023-08-31T05:19:01;13.77;;;7.20;;
52268;SDS011;38224;50.950;4.100;2023-08-31T05:21:27;17.95;;;8.05;;
52268;SDS011;38224;50.950;4.100;2023-08-31T05:23:53;14.90;;;7.60;;
52268;SDS011;38224;50.950;4.100;2023-08-31T05:26:18;12.32;;;6.75;;
52268;SDS011;38224;50.950;4.100;2023-08-31T05:28:43;12.63;;;6.37;;
52268;SDS011;38224;50.950;4.100;2023-08-31T05:31:08;14.17;;;6.40;;
52268;SDS011;38224;50.950;4.100;2023-08-31T05:33:34;11.48;;;5.53;;
52268;SDS011;38224;50.950;4.100;2023-08-31T05:36:02;16.83;;;6.22;;
52268;SDS011;38224;50.950;4.100;2023-08-31T05:38:30;14.05;;;5.60;;
52268;SDS011;38224;50.950;4.100;2023-08-31T05:41:05;11.00;;;4.82;;
52268;SDS011;38224;50.950;4.100;2023-08-31T05:43:31;9.50;;;4.88;;
52268;SDS011;38224;50.950;4.100;2023-08-31T05:45:56;9.73;;;4.55;;
52268;SDS011;38224;50.950;4.100;2023-08-31T05:48:21;20.13;;;5.20;;
52268;SDS011;38224;50.950;4.100;2023-08-31T05:50:47;12.20;;;5.37;;
52268;SDS011;38224;50.950;4.100;2023-08-31T05:53:12;12.52;;;5.00;;
52268;SDS011;38224;50.950;4.100;2023-08-31T05:55:37;8.98;;;5.18;;
52268;SDS011;38224;50.950;4.100;2023-08-31T05:58:03;13.38;;;4.82;;
52268;SDS011;38224;50.950;4.100;2023-08-31T06:00:28;12.57;;;5.25;;
52268;SDS011;38224;50.950;4.100;2023-08-31T06:02:53;11.35;;;4.75;;
52268;SDS011;38224;50.950;4.100;2023-08-31T06:05:18;10.77;;;5.32;;
52268;SDS011;38224;50.950;4.100;2023-08-31T06:07:44;7.97;;;3.90;;
52268;SDS011;38224;50.950;4.100;2023-08-31T06:10:09;15.10;;;5.20;;
52268;SDS011;38224;50.950;4.100;2023-08-31T06:12:35;12.07;;;3.47;;
52268;SDS011;38224;50.950;4.100;2023-08-31T06:15:00;17.97;;;3.50;;
52268;SDS011;38224;50.950;4.100;2023-08-31T06:17:25;11.80;;;3.00;;
52268;SDS011;38224;50.950;4.100;2023-08-31T06:19:51;9.05;;;2.78;;
52268;SDS011;38224;50.950;4.100;2023-08-31T06:22:16;8.70;;;2.73;;
52268;SDS011;38224;50.950;4.100;2023-08-31T06:24:41;6.57;;;2.60;;
52268;SDS011;38224;50.950;4.100;2023-08-31T06:27:07;8.68;;;2.90;;
52268;SDS011;38224;50.950;4.100;2023-08-31T06:29:32;12.32;;;3.35;;
52268;SDS011;38224;50.950;4.100;2023-08-31T06:31:57;8.83;;;3.00;;
52268;SDS011;38224;50.950;4.100;2023-08-31T06:34:23;10.03;;;3.10;;
52268;SDS011;38224;50.950;4.100;2023-08-31T06:36:48;11.57;;;2.97;;
52268;SDS011;38224;50.950;4.100;2023-08-31T06:39:13;6.57;;;3.00;;
52268;SDS011;38224;50.950;4.100;2023-08-31T06:41:38;10.95;;;3.08;;
52268;SDS011;38224;50.950;4.100;2023-08-31T06:44:04;10.47;;;3.90;;
52268;SDS011;38224;50.950;4.100;2023-08-31T06:46:30;13.90;;;3.28;;
52268;SDS011;38224;50.950;4.100;2023-08-31T06:48:59;7.47;;;3.10;;
52268;SDS011;38224;50.950;4.100;2023-08-31T06:51:24;8.25;;;3.42;;
52268;SDS011;38224;50.950;4.100;2023-08-31T06:53:50;10.15;;;2.92;;
52268;SDS011;38224;50.950;4.100;2023-08-31T06:56:15;7.47;;;2.85;;
52268;SDS011;38224;50.950;4.100;2023-08-31T06:58:41;5.07;;;2.47;;
52268;SDS011;38224;50.950;4.100;2023-08-31T07:01:06;10.97;;;3.00;;
52268;SDS011;38224;50.950;4.100;2023-08-31T07:03:31;12.77;;;2.77;;
52268;SDS011;38224;50.950;4.100;2023-08-31T07:05:56;11.88;;;3.63;;
52268;SDS011;38224;50.950;4.100;2023-08-31T07:08:22;16.35;;;2.90;;
52268;SDS011;38224;50.950;4.100;2023-08-31T07:10:49;6.97;;;3.03;;
52268;SDS011;38224;50.950;4.100;2023-08-31T07:13:15;11.55;;;3.10;;
52268;SDS011;38224;50.950;4.100;2023-08-31T07:15:40;8.30;;;2.83;;
52268;SDS011;38224;50.950;4.100;2023-08-31T07:18:05;11.33;;;3.10;;
52268;SDS011;38224;50.950;4.100;2023-08-31T07:20:31;8.50;;;3.03;;
52268;SDS011;38224;50.950;4.100;2023-08-31T07:22:56;9.70;;;3.23;;
52268;SDS011;38224;50.950;4.100;2023-08-31T07:25:21;7.30;;;2.80;;
52268;SDS011;38224;50.950;4.100;2023-08-31T07:27:46;8.40;;;2.90;;
52268;SDS011;38224;50.950;4.100;2023-08-31T07:30:12;13.53;;;6.90;;
52268;SDS011;38224;50.950;4.100;2023-08-31T07:32:37;10.93;;;2.58;;
52268;SDS011;38224;50.950;4.100;2023-08-31T07:35:02;11.13;;;2.60;;
52268;SDS011;38224;50.950;4.100;2023-08-31T07:37:29;6.25;;;2.40;;
52268;SDS011;38224;50.950;4.100;2023-08-31T07:39:55;14.45;;;2.75;;
52268;SDS011;38224;50.950;4.100;2023-08-31T07:42:20;7.33;;;2.90;;
52268;SDS011;38224;50.950;4.100;2023-08-31T07:44:45;12.43;;;3.33;;
52268;SDS011;38224;50.950;4.100;2023-08-31T07:47:10;11.50;;;3.57;;
52268;SDS011;38224;50.950;4.100;2023-08-31T07:49:36;14.40;;;3.33;;
52268;SDS011;38224;50.950;4.100;2023-08-31T07:52:01;6.87;;;2.30;;
52268;SDS011;38224;50.950;4.100;2023-08-31T07:54:27;10.45;;;3.38;;
52268;SDS011;38224;50.950;4.100;2023-08-31T07:56:53;7.67;;;2.73;;
52268;SDS011;38224;50.950;4.100;2023-08-31T07:59:18;6.13;;;2.57;;
52268;SDS011;38224;50.950;4.100;2023-08-31T08:01:43;11.20;;;3.00;;
52268;SDS011;38224;50.950;4.100;2023-08-31T08:04:10;13.23;;;2.80;;
52268;SDS011;38224;50.950;4.100;2023-08-31T08:06:35;8.30;;;2.97;;
52268;SDS011;38224;50.950;4.100;2023-08-31T08:09:00;7.23;;;2.60;;
52268;SDS011;38224;50.950;4.100;2023-08-31T08:11:25;8.87;;;2.87;;
52268;SDS011;38224;50.950;4.100;2023-08-31T08:13:51;12.10;;;3.07;;
52268;SDS011;38224;50.950;4.100;2023-08-31T08:16:16;6.77;;;3.13;;
52268;SDS011;38224;50.950;4.100;2023-08-31T08:18:41;6.10;;;3.03;;
52268;SDS011;38224;50.950;4.100;2023-08-31T08:21:06;6.93;;;2.87;;
52268;SDS011;38224;50.950;4.100;2023-08-31T08:23:32;9.47;;;3.13;;
52268;SDS011;38224;50.950;4.100;2023-08-31T08:25:57;6.57;;;2.80;;
52268;SDS011;38224;50.950;4.100;2023-08-31T08:28:25;5.38;;;2.38;;
52268;SDS011;38224;50.950;4.100;2023-08-31T08:30:51;9.48;;;3.83;;
52268;SDS011;38224;50.950;4.100;2023-08-31T08:33:16;10.50;;;3.43;;
52268;SDS011;38224;50.950;4.100;2023-08-31T08:35:41;9.13;;;3.50;;
52268;SDS011;38224;50.950;4.100;2023-08-31T08:38:06;9.63;;;2.77;;
52268;SDS011;38224;50.950;4.100;2023-08-31T08:40:32;7.60;;;3.15;;
52268;SDS011;38224;50.950;4.100;2023-08-31T08:43:00;6.57;;;3.00;;
52268;SDS011;38224;50.950;4.100;2023-08-31T08:45:25;9.40;;;3.13;;
52268;SDS011;38224;50.950;4.100;2023-08-31T08:47:53;8.38;;;3.33;;
52268;SDS011;38224;50.950;4.100;2023-08-31T08:50:19;9.55;;;3.30;;
52268;SDS011;38224;50.950;4.100;2023-08-31T08:52:45;7.38;;;2.80;;
52268;SDS011;38224;50.950;4.100;2023-08-31T08:55:10;8.32;;;2.75;;
52268;SDS011;38224;50.950;4.100;2023-08-31T08:57:36;9.52;;;3.13;;
52268;SDS011;38224;50.950;4.100;2023-08-31T09:00:01;8.35;;;2.63;;
52268;SDS011;38224;50.950;4.100;2023-08-31T09:02:28;6.15;;;2.88;;
52268;SDS011;38224;50.950;4.100;2023-08-31T09:04:53;9.17;;;3.63;;
52268;SDS011;38224;50.950;4.100;2023-08-31T09:07:22;8.45;;;3.28;;
52268;SDS011;38224;50.950;4.100;2023-08-31T09:09:49;10.32;;;3.38;;
52268;SDS011;38224;50.950;4.100;2023-08-31T09:12:17;8.25;;;3.28;;
52268;SDS011;38224;50.950;4.100;2023-08-31T09:14:42;7.80;;;3.33;;
52268;SDS011;38224;50.950;4.100;2023-08-31T09:17:08;13.40;;;3.70;;
52268;SDS011;38224;50.950;4.100;2023-08-31T09:19:33;8.10;;;3.10;;
52268;SDS011;38224;50.950;4.100;2023-08-31T09:21:58;10.03;;;4.20;;
52268;SDS011;38224;50.950;4.100;2023-08-31T09:24:24;9.27;;;3.78;;
52268;SDS011;38224;50.950;4.100;2023-08-31T09:26:52;8.70;;;3.00;;
52268;SDS011;38224;50.950;4.100;2023-08-31T09:29:17;6.90;;;3.08;;
52268;SDS011;38224;50.950;4.100;2023-08-31T09:31:43;8.47;;;3.10;;
52268;SDS011;38224;50.950;4.100;2023-08-31T09:34:09;12.05;;;3.53;;
52268;SDS011;38224;50.950;4.100;2023-08-31T09:36:34;5.27;;;2.73;;
52268;SDS011;38224;50.950;4.100;2023-08-31T09:39:00;12.05;;;3.72;;
52268;SDS011;38224;50.950;4.100;2023-08-31T09:41:25;8.57;;;3.10;;
52268;SDS011;38224;50.950;4.100;2023-08-31T09:43:50;9.82;;;3.08;;
52268;SDS011;38224;50.950;4.100;2023-08-31T09:46:16;10.67;;;3.83;;
52268;SDS011;38224;50.950;4.100;2023-08-31T09:48:41;7.43;;;2.60;;
52268;SDS011;38224;50.950;4.100;2023-08-31T09:51:07;11.35;;;4.03;;
52268;SDS011;38224;50.950;4.100;2023-08-31T09:53:35;6.13;;;2.88;;
52268;SDS011;38224;50.950;4.100;2023-08-31T09:56:01;7.97;;;3.00;;
52268;SDS011;38224;50.950;4.100;2023-08-31T09:58:27;9.43;;;2.90;;
52268;SDS011;38224;50.950;4.100;2023-08-31T10:00:53;8.55;;;3.17;;
52268;SDS011;38224;50.950;4.100;2023-08-31T10:03:20;7.60;;;3.35;;
52268;SDS011;38224;50.950;4.100;2023-08-31T10:05:46;4.72;;;2.95;;
52268;SDS011;38224;50.950;4.100;2023-08-31T10:08:12;9.75;;;3.88;;
52268;SDS011;38224;50.950;4.100;2023-08-31T10:10:38;8.18;;;2.92;;
52268;SDS011;38224;50.950;4.100;2023-08-31T10:13:04;5.25;;;2.90;;
52268;SDS011;38224;50.950;4.100;2023-08-31T10:15:33;7.10;;;2.90;;
52268;SDS011;38224;50.950;4.100;2023-08-31T10:18:00;9.30;;;3.63;;
52268;SDS011;38224;50.950;4.100;2023-08-31T10:20:25;8.25;;;3.05;;
52268;SDS011;38224;50.950;4.100;2023-08-31T10:22:54;5.15;;;2.63;;
52268;SDS011;38224;50.950;4.100;2023-08-31T10:25:19;10.63;;;3.15;;
52268;SDS011;38224;50.950;4.100;2023-08-31T10:27:44;11.57;;;2.60;;
52268;SDS011;38224;50.950;4.100;2023-08-31T10:30:23;6.50;;;2.70;;
52268;SDS011;38224;50.950;4.100;2023-08-31T10:35:54;6.88;;;2.15;;
52268;SDS011;38224;50.950;4.100;2023-08-31T10:38:23;4.95;;;2.47;;
52268;SDS011;38224;50.950;4.100;2023-08-31T10:40:59;7.95;;;2.03;;
52268;SDS011;38224;50.950;4.100;2023-08-31T10:43:25;8.48;;;2.35;;
52268;SDS011;38224;50.950;4.100;2023-08-31T10:45:50;9.77;;;2.17;;
52268;SDS011;38224;50.950;4.100;2023-08-31T10:48:16;5.57;;;2.15;;
52268;SDS011;38224;50.950;4.100;2023-08-31T10:50:42;5.80;;;2.35;;
52268;SDS011;38224;50.950;4.100;2023-08-31T10:53:10;8.20;;;2.10;;
52268;SDS011;38224;50.950;4.100;2023-08-31T10:55:52;6.80;;;2.40;;
52268;SDS011;38224;50.950;4.100;2023-08-31T10:58:17;11.70;;;3.08;;
52268;SDS011;38224;50.950;4.100;2023-08-31T11:00:46;13.27;;;4.53;;
52268;SDS011;38224;50.950;4.100;2023-08-31T11:03:12;8.70;;;3.60;;
52268;SDS011;38224;50.950;4.100;2023-08-31T11:05:37;7.70;;;2.78;;
52268;SDS011;38224;50.950;4.100;2023-08-31T11:08:15;6.07;;;3.20;;
52268;SDS011;38224;50.950;4.100;2023-08-31T11:10:40;6.07;;;3.05;;
52268;SDS011;38224;50.950;4.100;2023-08-31T11:13:10;6.72;;;3.45;;
52268;SDS011;38224;50.950;4.100;2023-08-31T11:15:40;9.30;;;3.55;;
52268;SDS011;38224;50.950;4.100;2023-08-31T11:18:10;7.70;;;2.78;;
52268;SDS011;38224;50.950;4.100;2023-08-31T11:20:35;5.70;;;2.40;;
52268;SDS011;38224;50.950;4.100;2023-08-31T11:23:01;4.95;;;2.40;;
52268;SDS011;38224;50.950;4.100;2023-08-31T11:25:29;5.75;;;2.20;;
52268;SDS011;38224;50.950;4.100;2023-08-31T11:27:56;6.32;;;2.20;;
52268;SDS011;38224;50.950;4.100;2023-08-31T11:30:21;6.07;;;2.33;;
52268;SDS011;38224;50.950;4.100;2023-08-31T11:32:47;6.38;;;1.98;;
52268;SDS011;38224;50.950;4.100;2023-08-31T11:35:14;5.45;;;2.30;;
52268;SDS011;38224;50.950;4.100;2023-08-31T11:37:39;8.18;;;1.88;;
52268;SDS011;38224;50.950;4.100;2023-08-31T11:40:06;4.65;;;1.98;;
52268;SDS011;38224;50.950;4.100;2023-08-31T11:42:31;9.07;;;2.40;;
52268;SDS011;38224;50.950;4.100;2023-08-31T11:44:57;6.37;;;2.10;;
52268;SDS011;38224;50.950;4.100;2023-08-31T11:47:22;6.40;;;2.22;;
52268;SDS011;38224;50.950;4.100;2023-08-31T11:49:47;5.07;;;1.83;;
52268;SDS011;38224;50.950;4.100;2023-08-31T11:52:13;5.32;;;2.30;;
52268;SDS011;38224;50.950;4.100;2023-08-31T11:54:39;7.88;;;1.90;;
52268;SDS011;38224;50.950;4.100;2023-08-31T11:57:07;6.32;;;2.00;;
52268;SDS011;38224;50.950;4.100;2023-08-31T11:59:37;5.15;;;1.52;;
52268;SDS011;38224;50.950;4.100;2023-08-31T12:02:06;3.45;;;1.52;;
52268;SDS011;38224;50.950;4.100;2023-08-31T12:04:32;7.22;;;2.03;;
52268;SDS011;38224;50.950;4.100;2023-08-31T12:07:01;6.32;;;1.95;;
52268;SDS011;38224;50.950;4.100;2023-08-31T12:09:29;8.55;;;1.98;;
52268;SDS011;38224;50.950;4.100;2023-08-31T12:11:55;8.02;;;2.00;;
52268;SDS011;38224;50.950;4.100;2023-08-31T12:14:21;9.03;;;2.47;;
52268;SDS011;38224;50.950;4.100;2023-08-31T12:16:47;7.43;;;2.17;;
52268;SDS011;38224;50.950;4.100;2023-08-31T12:19:12;6.18;;;1.90;;
52268;SDS011;38224;50.950;4.100;2023-08-31T12:21:38;6.90;;;2.10;;
52268;SDS011;38224;50.950;4.100;2023-08-31T12:24:04;6.20;;;2.37;;
52268;SDS011;38224;50.950;4.100;2023-08-31T12:26:29;9.05;;;2.80;;
52268;SDS011;38224;50.950;4.100;2023-08-31T12:28:55;6.93;;;1.90;;
52268;SDS011;38224;50.950;4.100;2023-08-31T12:31:22;7.07;;;2.20;;
52268;SDS011;38224;50.950;4.100;2023-08-31T12:33:47;5.97;;;2.13;;
52268;SDS011;38224;50.950;4.100;2023-08-31T12:36:12;9.43;;;2.38;;
52268;SDS011;38224;50.950;4.100;2023-08-31T12:38:38;6.65;;;2.03;;
52268;SDS011;38224;50.950;4.100;2023-08-31T12:41:03;3.97;;;1.73;;
52268;SDS011;38224;50.950;4.100;2023-08-31T12:43:29;7.30;;;2.40;;
52268;SDS011;38224;50.950;4.100;2023-08-31T12:45:57;7.95;;;2.63;;
52268;SDS011;38224;50.950;4.100;2023-08-31T12:48:22;10.23;;;2.35;;
52268;SDS011;38224;50.950;4.100;2023-08-31T12:50:48;11.45;;;1.80;;
52268;SDS011;38224;50.950;4.100;2023-08-31T12:53:13;11.48;;;1.73;;
52268;SDS011;38224;50.950;4.100;2023-08-31T12:55:39;9.45;;;1.83;;
52268;SDS011;38224;50.950;4.100;2023-08-31T12:58:04;8.20;;;1.90;;
52268;SDS011;38224;50.950;4.100;2023-08-31T13:00:29;5.37;;;1.50;;
52268;SDS011;38224;50.950;4.100;2023-08-31T13:02:55;6.50;;;1.73;;
52268;SDS011;38224;50.950;4.100;2023-08-31T13:05:20;6.73;;;1.80;;
52268;SDS011;38224;50.950;4.100;2023-08-31T13:07:45;6.50;;;1.80;;
52268;SDS011;38224;50.950;4.100;2023-08-31T13:10:11;7.90;;;1.90;;
52268;SDS011;38224;50.950;4.100;2023-08-31T13:12:36;5.18;;;1.73;;
52268;SDS011;38224;50.950;4.100;2023-08-31T13:15:02;3.20;;;1.60;;
52268;SDS011;38224;50.950;4.100;2023-08-31T13:17:28;5.38;;;1.60;;
52268;SDS011;38224;50.950;4.100;2023-08-31T13:19:53;4.97;;;1.67;;
52268;SDS011;38224;50.950;4.100;2023-08-31T13:22:19;7.03;;;1.77;;
52268;SDS011;38224;50.950;4.100;2023-08-31T13:24:45;8.48;;;1.67;;
52268;SDS011;38224;50.950;4.100;2023-08-31T13:27:10;6.68;;;1.85;;
52268;SDS011;38224;50.950;4.100;2023-08-31T13:29:35;5.63;;;1.63;;
52268;SDS011;38224;50.950;4.100;2023-08-31T13:32:01;5.40;;;1.47;;
52268;SDS011;38224;50.950;4.100;2023-08-31T13:34:26;5.35;;;1.30;;
52268;SDS011;38224;50.950;4.100;2023-08-31T13:36:51;6.83;;;1.90;;
52268;SDS011;38224;50.950;4.100;2023-08-31T13:39:16;5.60;;;1.77;;
52268;SDS011;38224;50.950;4.100;2023-08-31T13:41:42;8.77;;;2.00;;
52268;SDS011;38224;50.950;4.100;2023-08-31T13:44:07;6.95;;;2.70;;
52268;SDS011;38224;50.950;4.100;2023-08-31T13:46:32;8.53;;;2.43;;
52268;SDS011;38224;50.950;4.100;2023-08-31T13:48:58;9.03;;;2.37;;
52268;SDS011;38224;50.950;4.100;2023-08-31T13:51:23;8.30;;;1.90;;
52268;SDS011;38224;50.950;4.100;2023-08-31T13:53:48;5.40;;;1.90;;
52268;SDS011;38224;50.950;4.100;2023-08-31T13:56:13;7.53;;;2.10;;
52268;SDS011;38224;50.950;4.100;2023-08-31T13:58:39;10.53;;;2.50;;
52268;SDS011;38224;50.950;4.100;2023-08-31T14:01:05;7.28;;;1.67;;
52268;SDS011;38224;50.950;4.100;2023-08-31T14:03:30;5.85;;;1.67;;
52268;SDS011;38224;50.950;4.100;2023-08-31T14:05:55;4.10;;;1.87;;
52268;SDS011;38224;50.950;4.100;2023-08-31T14:08:21;10.70;;;2.70;;
52268;SDS011;38224;50.950;4.100;2023-08-31T14:10:46;7.73;;;2.10;;
52268;SDS011;38224;50.950;4.100;2023-08-31T14:13:12;4.53;;;1.80;;
52268;SDS011;38224;50.950;4.100;2023-08-31T14:15:38;5.95;;;2.05;;
52268;SDS011;38224;50.950;4.100;2023-08-31T14:18:11;8.23;;;2.20;;
52268;SDS011;38224;50.950;4.100;2023-08-31T14:20:36;13.43;;;2.60;;
52268;SDS011;38224;50.950;4.100;2023-08-31T14:23:01;6.25;;;1.73;;
52268;SDS011;38224;50.950;4.100;2023-08-31T14:25:27;7.50;;;2.42;;
52268;SDS011;38224;50.950;4.100;2023-08-31T14:27:52;7.83;;;2.63;;
52268;SDS011;38224;50.950;4.100;2023-08-31T14:30:17;6.47;;;2.30;;
52268;SDS011;38224;50.950;4.100;2023-08-31T14:32:43;7.82;;;2.60;;
52268;SDS011;38224;50.950;4.100;2023-08-31T14:35:08;11.87;;;2.60;;
52268;SDS011;38224;50.950;4.100;2023-08-31T14:37:33;8.85;;;2.50;;
52268;SDS011;38224;50.950;4.100;2023-08-31T14:39:58;7.73;;;2.50;;
52268;SDS011;38224;50.950;4.100;2023-08-31T14:42:24;12.63;;;2.95;;
52268;SDS011;38224;50.950;4.100;2023-08-31T14:44:49;8.13;;;2.37;;